Time;durP1;ratioP1;P1;durP2;ratioP2;P2;SDS_P1;SDS_P2;PMS_P1;PMS_P2;Temp;Humidity;BMP_temperature;BMP_pressure;BME280_temperature;BME280_humidity;BME280_pressure;Samples;Min_cycle;Max_cycle;Signal;HPM_P1;HPM_P2
2021/12/12 00:00:54;;;;;;;6.05;5.45;;;3.30;99.90;;;;;;4948251;28;20226;-82
2021/12/12 00:03:33;;;;;;;6.45;5.95;;;3.50;99.90;;;;;;4950236;29;20208;-82
2021/12/12 00:06:05;;;;;;;6.03;5.47;;;3.60;99.90;;;;;;4951480;29;20213;-82
2021/12/12 00:08:32;;;;;;;6.75;6.15;;;3.80;99.90;;;;;;4945791;29;20207;-81
2021/12/12 00:11:04;;;;;;;6.38;5.78;;;3.90;99.90;;;;;;4941840;29;20238;-82
2021/12/12 00:13:36;;;;;;;5.72;5.18;;;4.00;99.90;;;;;;4942939;29;20597;-82
2021/12/12 00:16:03;;;;;;;6.05;5.43;;;3.80;99.90;;;;;;4942675;29;20260;-81
2021/12/12 00:18:30;;;;;;;7.28;6.55;;;3.60;99.90;;;;;;4942761;29;20639;-81
2021/12/12 00:20:57;;;;;;;6.95;6.25;;;3.50;99.90;;;;;;4942988;29;20627;-81
2021/12/12 00:23:24;;;;;;;5.75;5.35;;;3.50;99.90;;;;;;4943120;29;20215;-82
2021/12/12 00:25:54;;;;;;;5.10;4.70;;;3.60;99.90;;;;;;4942374;29;20221;-82
2021/12/12 00:28:22;;;;;;;6.75;6.18;;;3.60;99.90;;;;;;4942049;29;20244;-83
2021/12/12 00:30:52;;;;;;;8.13;7.35;;;3.60;99.90;;;;;;4942293;29;20231;-82
2021/12/12 00:33:19;;;;;;;6.63;6.03;;;3.70;99.90;;;;;;4942333;29;20205;-82
2021/12/12 00:35:48;;;;;;;7.93;7.13;;;3.90;99.90;;;;;;4942715;29;20206;-84
2021/12/12 00:38:18;;;;;;;6.15;5.65;;;4.00;99.90;;;;;;4942485;29;20228;-82
2021/12/12 00:40:48;;;;;;;5.78;5.25;;;4.10;99.90;;;;;;4942285;29;20233;-81
2021/12/12 00:43:20;;;;;;;7.57;6.40;;;4.20;99.90;;;;;;4942488;29;20216;-81
2021/12/12 00:45:48;;;;;;;12.88;7.13;;;4.10;99.90;;;;;;4942919;29;20233;-81
2021/12/12 00:48:15;;;;;;;6.80;6.10;;;4.10;99.90;;;;;;4942028;29;20209;-82
2021/12/12 00:50:44;;;;;;;5.88;5.47;;;4.20;99.90;;;;;;4942165;29;20234;-82
2021/12/12 00:53:12;;;;;;;6.55;5.15;;;4.00;99.90;;;;;;4942363;29;20213;-81
2021/12/12 00:55:40;;;;;;;6.18;5.63;;;3.90;99.90;;;;;;4941895;29;20203;-81
2021/12/12 00:58:08;;;;;;;6.22;5.65;;;3.80;99.90;;;;;;4941626;29;20214;-82
2021/12/12 01:00:43;;;;;;;6.28;5.53;;;3.80;99.90;;;;;;4941774;29;20236;-82
2021/12/12 01:03:13;;;;;;;7.10;6.30;;;3.70;99.90;;;;;;4942794;29;20282;-82
2021/12/12 01:05:40;;;;;;;6.38;5.88;;;3.50;99.90;;;;;;4942337;29;20225;-82
2021/12/12 01:08:10;;;;;;;6.78;5.47;;;3.70;99.90;;;;;;4942056;29;20229;-82
2021/12/12 01:10:40;;;;;;;7.35;6.65;;;3.70;99.90;;;;;;4941548;29;20302;-81
2021/12/12 01:13:09;;;;;;;6.28;5.68;;;3.70;99.90;;;;;;4942565;29;20217;-81
2021/12/12 01:15:38;;;;;;;7.65;6.88;;;3.90;99.90;;;;;;4942201;29;20247;-82
2021/12/12 01:18:07;;;;;;;5.28;4.80;;;4.00;99.90;;;;;;4941795;29;20673;-81
2021/12/12 01:20:40;;;;;;;7.38;6.65;;;4.00;99.90;;;;;;4941554;29;20234;-81
2021/12/12 01:23:11;;;;;;;7.85;6.80;;;4.10;99.90;;;;;;4941872;29;20657;-81
2021/12/12 01:25:44;;;;;;;6.35;5.75;;;4.00;99.90;;;;;;4941236;29;20230;-81
2021/12/12 01:28:12;;;;;;;6.93;6.22;;;4.00;99.90;;;;;;4941902;29;20214;-81
2021/12/12 01:30:39;;;;;;;6.95;6.25;;;3.90;99.90;;;;;;4942719;29;20237;-83
2021/12/12 01:33:09;;;;;;;6.03;5.50;;;3.90;99.90;;;;;;4945000;29;20233;-82
2021/12/12 01:35:38;;;;;;;7.25;6.65;;;4.00;99.90;;;;;;4945891;29;20689;-81
2021/12/12 01:40:57;;;;;;;6.80;6.10;;;3.70;99.90;;;;;;4945629;29;20249;-83
2021/12/12 01:43:27;;;;;;;7.05;5.30;;;3.70;99.90;;;;;;4945441;29;20216;-81
2021/12/12 01:46:00;;;;;;;5.82;5.25;;;3.70;99.90;;;;;;4945518;29;20311;-83
2021/12/12 01:48:30;;;;;;;5.93;4.82;;;3.80;99.90;;;;;;4945064;29;20280;-82
2021/12/12 01:51:01;;;;;;;6.60;5.55;;;3.90;99.90;;;;;;4945610;29;20243;-83
2021/12/12 01:53:30;;;;;;;6.60;6.00;;;3.70;99.90;;;;;;4946060;29;20296;-82
2021/12/12 01:56:00;;;;;;;7.47;6.68;;;3.70;99.90;;;;;;4953714;29;20203;-80
2021/12/12 01:58:32;;;;;;;6.90;6.07;;;3.80;99.90;;;;;;4957731;29;20221;-81
2021/12/12 02:01:01;;;;;;;7.50;6.55;;;3.80;99.90;;;;;;4955381;29;20226;-80
2021/12/12 02:03:31;;;;;;;6.85;6.28;;;3.80;99.90;;;;;;4956202;29;20274;-82
2021/12/12 02:06:01;;;;;;;8.60;7.60;;;3.80;99.90;;;;;;4956700;29;20225;-80
2021/12/12 02:08:30;;;;;;;9.88;6.25;;;3.90;99.90;;;;;;4956325;29;20220;-80
2021/12/12 02:10:59;;;;;;;6.80;6.10;;;4.00;99.90;;;;;;4955048;29;20241;-82
2021/12/12 02:13:28;;;;;;;7.40;5.82;;;4.10;99.90;;;;;;4951098;29;20221;-83
2021/12/12 02:16:00;;;;;;;5.70;5.20;;;3.70;99.90;;;;;;4943544;29;20198;-83
2021/12/12 02:18:35;;;;;;;5.75;5.10;;;3.90;99.90;;;;;;4944463;29;20213;-82
2021/12/12 02:21:10;;;;;;;5.95;5.45;;;3.90;99.90;;;;;;4944269;29;20621;-81
2021/12/12 02:24:00;;;;;;;5.15;4.65;;;3.80;99.90;;;;;;4945585;29;20273;-83
2021/12/12 02:37:28;;;;;;;5.35;4.88;;;4.20;99.90;;;;;;4944607;29;20224;-83
2021/12/12 02:39:57;;;;;;;5.07;4.68;;;4.10;99.90;;;;;;4944422;29;20226;-82
2021/12/12 02:42:24;;;;;;;5.03;4.63;;;4.10;99.90;;;;;;4943787;29;20220;-83
2021/12/12 02:44:57;;;;;;;6.75;5.43;;;4.10;99.90;;;;;;4943986;29;20213;-81
2021/12/12 02:47:32;;;;;;;5.78;5.25;;;4.20;99.90;;;;;;4943768;29;20638;-84
2021/12/12 02:50:10;;;;;;;4.60;4.20;;;4.20;99.90;;;;;;4924943;29;20292;-84
2021/12/12 02:52:39;;;;;;;6.30;5.32;;;4.20;99.90;;;;;;4926713;29;20370;-84
2021/12/12 02:55:11;;;;;;;6.82;6.00;;;4.20;99.90;;;;;;4944299;29;20224;-82
2021/12/12 02:57:39;;;;;;;6.03;5.38;;;4.10;99.90;;;;;;4925012;29;20221;-84
2021/12/12 03:00:08;;;;;;;4.45;4.15;;;4.10;99.90;;;;;;4925635;29;20700;-80
2021/12/12 03:02:42;;;;;;;5.63;5.10;;;4.20;99.90;;;;;;4944832;29;20260;-84
2021/12/12 03:05:09;;;;;;;5.50;4.80;;;4.10;99.90;;;;;;4945016;29;20267;-84
2021/12/12 03:07:36;;;;;;;4.55;4.15;;;4.00;99.90;;;;;;4944648;29;20212;-83
2021/12/12 03:10:05;;;;;;;7.28;5.07;;;3.80;99.90;;;;;;4946073;29;20237;-84
2021/12/12 03:12:35;;;;;;;5.22;4.35;;;3.90;99.90;;;;;;4944676;29;20203;-84
2021/12/12 03:15:08;;;;;;;5.80;5.30;;;3.90;99.90;;;;;;4945511;29;20214;-84
2021/12/12 03:17:36;;;;;;;5.80;5.28;;;3.90;99.90;;;;;;4944797;29;20223;-84
2021/12/12 03:20:23;;;;;;;5.25;4.85;;;3.90;99.90;;;;;;4946351;29;20235;-84
2021/12/12 03:22:51;;;;;;;4.72;4.32;;;3.80;99.90;;;;;;4948911;29;20214;-84
2021/12/12 03:25:18;;;;;;;4.53;3.90;;;3.80;99.90;;;;;;4948822;29;20226;-82
2021/12/12 03:27:47;;;;;;;5.45;4.68;;;3.60;99.90;;;;;;4948912;29;20701;-84
2021/12/12 03:30:15;;;;;;;5.45;4.43;;;3.60;99.90;;;;;;4948751;29;20254;-84
2021/12/12 03:32:42;;;;;;;5.57;4.40;;;3.60;99.90;;;;;;4948074;29;20211;-85
2021/12/12 03:35:09;;;;;;;6.00;5.50;;;3.50;99.90;;;;;;4946688;29;20216;-84
2021/12/12 03:37:36;;;;;;;5.57;4.47;;;3.50;99.90;;;;;;4943046;29;20219;-84
2021/12/12 03:40:09;;;;;;;5.35;4.53;;;3.50;99.90;;;;;;4941438;29;20240;-86
2021/12/12 03:42:36;;;;;;;6.95;6.25;;;3.40;99.90;;;;;;4941829;29;20216;-84
2021/12/12 03:45:07;;;;;;;4.93;4.50;;;3.30;99.90;;;;;;4941693;29;20209;-84
2021/12/12 03:47:38;;;;;;;5.47;5.05;;;3.30;99.90;;;;;;4943219;29;20209;-83
2021/12/12 03:50:09;;;;;;;6.00;5.40;;;3.30;99.90;;;;;;4943462;29;20228;-83
2021/12/12 03:52:36;;;;;;;7.03;5.35;;;3.20;99.90;;;;;;4943758;29;20216;-83
2021/12/12 03:55:05;;;;;;;5.45;4.95;;;3.20;99.90;;;;;;4942687;29;20203;-83
2021/12/12 03:57:32;;;;;;;8.25;5.50;;;3.30;99.90;;;;;;4942205;29;20217;-84
2021/12/12 04:00:00;;;;;;;7.30;5.95;;;3.30;99.90;;;;;;4941124;29;20235;-83
2021/12/12 04:02:29;;;;;;;5.63;5.00;;;3.30;99.90;;;;;;4941105;29;20212;-84
2021/12/12 04:04:57;;;;;;;8.40;5.82;;;3.40;99.90;;;;;;4941121;29;20211;-84
2021/12/12 04:07:26;;;;;;;6.05;5.55;;;3.50;99.90;;;;;;4940665;29;20235;-84
2021/12/12 04:09:55;;;;;;;6.32;5.70;;;3.50;99.90;;;;;;4941315;29;20227;-84
2021/12/12 04:12:22;;;;;;;8.38;5.85;;;3.50;99.90;;;;;;4941016;29;20680;-84
2021/12/12 04:14:52;;;;;;;10.63;6.90;;;3.40;99.90;;;;;;4941076;29;20210;-84
2021/12/12 04:17:23;;;;;;;8.82;7.60;;;3.40;99.90;;;;;;4940734;29;20622;-84
2021/12/12 04:19:55;;;;;;;6.63;5.53;;;3.40;99.90;;;;;;4941145;29;20235;-84
2021/12/12 04:22:22;;;;;;;5.43;5.00;;;3.30;99.90;;;;;;4940650;29;20222;-84
2021/12/12 04:24:52;;;;;;;6.32;5.72;;;3.20;99.90;;;;;;4940817;29;20211;-83
2021/12/12 04:27:20;;;;;;;6.13;4.88;;;3.20;99.90;;;;;;4940802;29;20227;-84
2021/12/12 04:29:50;;;;;;;7.65;6.95;;;3.10;99.90;;;;;;4940798;29;20232;-84
2021/12/12 04:32:19;;;;;;;7.05;6.22;;;3.00;99.90;;;;;;4939136;29;20207;-82
2021/12/12 04:34:49;;;;;;;8.50;5.82;;;2.90;99.90;;;;;;4940277;29;20222;-84
2021/12/12 04:37:17;;;;;;;5.55;5.05;;;2.90;99.90;;;;;;4940497;29;20211;-83
2021/12/12 04:39:48;;;;;;;7.63;6.97;;;2.80;99.90;;;;;;4939941;29;20239;-84
2021/12/12 04:42:17;;;;;;;6.75;5.25;;;2.70;99.90;;;;;;4940284;29;20200;-84
2021/12/12 04:44:48;;;;;;;10.57;6.72;;;2.70;99.90;;;;;;4940168;29;20214;-85
2021/12/12 04:50:14;;;;;;;7.38;5.97;;;2.50;99.90;;;;;;4923244;29;20283;-84
2021/12/12 04:52:46;;;;;;;9.32;6.72;;;2.50;99.90;;;;;;4940704;29;20680;-83
2021/12/12 04:55:22;;;;;;;8.73;6.20;;;2.40;99.90;;;;;;4939835;29;20209;-82
2021/12/12 04:57:56;;;;;;;7.20;6.50;;;2.30;99.90;;;;;;4939954;29;20215;-84
2021/12/12 05:00:28;;;;;;;8.38;7.38;;;2.30;99.90;;;;;;4941207;29;20724;-83
2021/12/12 05:02:59;;;;;;;8.93;6.60;;;2.20;99.90;;;;;;4942359;29;20218;-83
2021/12/12 05:05:30;;;;;;;7.07;6.35;;;2.10;99.90;;;;;;4942910;29;20210;-85
2021/12/12 05:08:04;;;;;;;9.77;8.65;;;2.10;99.90;;;;;;4942344;29;20207;-83
2021/12/12 05:10:37;;;;;;;11.32;7.63;;;2.00;99.90;;;;;;4923222;29;20238;-85
2021/12/12 05:13:13;;;;;;;7.85;7.20;;;2.00;99.90;;;;;;4924729;29;20234;-85
2021/12/12 05:15:44;;;;;;;6.70;5.90;;;2.00;99.90;;;;;;4942350;29;20590;-86
2021/12/12 05:18:15;;;;;;;7.22;6.53;;;2.00;99.90;;;;;;4941678;29;20216;-82
2021/12/12 05:20:47;;;;;;;10.93;7.50;;;1.90;99.90;;;;;;4942304;29;20628;-86
2021/12/12 05:23:17;;;;;;;7.38;6.68;;;1.90;99.90;;;;;;4942753;29;20221;-85
2021/12/12 05:25:49;;;;;;;8.77;5.68;;;1.90;99.90;;;;;;4942213;29;20220;-86
2021/12/12 05:28:19;;;;;;;9.90;7.22;;;1.90;99.90;;;;;;4941965;29;20210;-85
2021/12/12 05:30:47;;;;;;;9.05;6.85;;;1.90;99.90;;;;;;4941416;29;20241;-86
2021/12/12 05:33:16;;;;;;;8.00;7.10;;;1.90;99.90;;;;;;4941589;29;20218;-85
2021/12/12 05:35:44;;;;;;;7.72;6.28;;;1.90;99.90;;;;;;4942184;29;20214;-86
2021/12/12 05:38:12;;;;;;;7.07;6.38;;;1.80;99.90;;;;;;4941940;29;20696;-86
2021/12/12 05:40:42;;;;;;;11.50;6.68;;;1.70;99.90;;;;;;4941428;29;20225;-85
2021/12/12 05:43:11;;;;;;;11.45;6.25;;;1.70;99.90;;;;;;4940250;29;20213;-83
2021/12/12 05:45:38;;;;;;;7.20;5.43;;;1.70;99.90;;;;;;4939963;29;20211;-84
2021/12/12 05:48:07;;;;;;;7.53;6.93;;;1.70;99.90;;;;;;4921270;29;20596;-85
2021/12/12 05:50:35;;;;;;;6.50;5.90;;;1.70;99.90;;;;;;4926213;29;20297;-84
2021/12/12 05:53:03;;;;;;;10.32;6.65;;;1.70;99.90;;;;;;4939822;29;20227;-85
2021/12/12 05:55:33;;;;;;;7.55;6.18;;;1.70;99.90;;;;;;4938974;29;20205;-84
2021/12/12 05:58:05;;;;;;;8.00;6.55;;;1.70;99.90;;;;;;4939774;29;20213;-84
2021/12/12 06:00:35;;;;;;;7.38;5.50;;;1.60;99.90;;;;;;4938282;29;20238;-84
2021/12/12 06:03:05;;;;;;;8.65;6.05;;;1.50;99.90;;;;;;4923102;29;20680;-84
2021/12/12 06:05:32;;;;;;;8.75;6.22;;;1.60;99.90;;;;;;4927102;29;20590;-84
2021/12/12 06:08:00;;;;;;;9.70;7.20;;;1.60;99.90;;;;;;4929484;29;20226;-85
2021/12/12 06:10:28;;;;;;;10.77;6.40;;;1.50;99.90;;;;;;4945243;29;20234;-85
2021/12/12 06:12:57;;;;;;;6.97;5.72;;;1.60;99.90;;;;;;4945748;29;20209;-85
2021/12/12 06:15:30;;;;;;;7.32;6.60;;;1.50;99.90;;;;;;4945690;29;20214;-84
2021/12/12 06:17:57;;;;;;;7.32;6.63;;;1.50;99.90;;;;;;4941419;29;20210;-83
2021/12/12 06:20:24;;;;;;;6.60;5.90;;;1.50;99.90;;;;;;4940810;29;20237;-84
2021/12/12 06:22:53;;;;;;;6.03;5.50;;;1.60;99.90;;;;;;4940713;29;20568;-83
2021/12/12 06:25:21;;;;;;;7.68;6.88;;;1.60;99.90;;;;;;4940894;29;20214;-84
2021/12/12 06:27:47;;;;;;;8.80;6.45;;;1.60;99.90;;;;;;4940767;29;20234;-84
2021/12/12 06:30:18;;;;;;;8.13;6.90;;;1.50;99.90;;;;;;4940691;29;20234;-83
2021/12/12 06:32:48;;;;;;;7.10;6.20;;;1.60;99.90;;;;;;4940874;29;20233;-83
2021/12/12 06:35:15;;;;;;;6.75;5.82;;;1.60;99.90;;;;;;4940076;29;20206;-83
2021/12/12 06:37:43;;;;;;;7.78;6.80;;;1.60;99.90;;;;;;4940040;29;20206;-83
2021/12/12 06:40:13;;;;;;;7.38;6.68;;;1.50;99.90;;;;;;4939732;29;20227;-83
2021/12/12 06:42:40;;;;;;;8.23;6.50;;;1.50;99.90;;;;;;4940351;29;20222;-83
2021/12/12 06:45:10;;;;;;;8.35;6.35;;;1.50;99.90;;;;;;4940003;29;20217;-83
2021/12/12 06:47:37;;;;;;;8.07;6.82;;;1.50;99.90;;;;;;4939738;29;20227;-83
2021/12/12 06:50:06;;;;;;;9.63;6.90;;;1.40;99.90;;;;;;4940463;29;20722;-83
2021/12/12 06:52:34;;;;;;;10.18;7.35;;;1.40;99.90;;;;;;4939675;29;20209;-83
2021/12/12 06:55:01;;;;;;;7.53;6.75;;;1.40;99.90;;;;;;4939584;29;20206;-83
2021/12/12 06:57:29;;;;;;;6.88;6.18;;;1.30;99.90;;;;;;4940533;29;20198;-83
2021/12/12 06:59:59;;;;;;;9.48;7.05;;;1.40;99.90;;;;;;4940688;29;20236;-83
2021/12/12 07:02:26;;;;;;;7.15;6.50;;;1.30;99.90;;;;;;4939574;29;20295;-83
2021/12/12 07:04:54;;;;;;;9.40;8.50;;;1.40;99.90;;;;;;4939555;29;20213;-82
2021/12/12 07:07:25;;;;;;;8.55;6.82;;;1.30;99.90;;;;;;4939631;29;20320;-83
2021/12/12 07:09:52;;;;;;;8.75;7.53;;;1.30;99.90;;;;;;4939600;29;20239;-83
2021/12/12 07:12:22;;;;;;;9.75;8.52;;;1.20;99.90;;;;;;4939500;29;20231;-83
2021/12/12 07:14:50;;;;;;;8.68;6.75;;;1.10;99.90;;;;;;4939217;29;20265;-83
2021/12/12 07:17:17;;;;;;;7.93;7.22;;;1.10;99.90;;;;;;4939739;29;20202;-83
2021/12/12 07:19:44;;;;;;;10.82;8.23;;;1.10;99.90;;;;;;4940151;29;20234;-83
2021/12/12 07:22:11;;;;;;;9.60;8.05;;;1.10;99.90;;;;;;4942673;29;20241;-86
2021/12/12 07:24:40;;;;;;;9.73;8.80;;;1.10;99.90;;;;;;4946386;29;20206;-85
2021/12/12 07:27:07;;;;;;;12.73;10.10;;;1.20;99.90;;;;;;4945040;29;20226;-85
2021/12/12 07:38:39;;;;;;;12.13;8.60;;;1.10;99.90;;;;;;4948894;29;20657;-85
2021/12/12 07:48:23;;;;;;;10.35;7.70;;;1.30;99.90;;;;;;4938642;29;20298;-86
2021/12/12 07:50:54;;;;;;;7.03;6.38;;;1.30;99.90;;;;;;4939181;29;20230;-85
2021/12/12 07:53:26;;;;;;;9.27;7.00;;;1.40;99.90;;;;;;4940954;29;20716;-85
2021/12/12 07:56:03;;;;;;;9.60;6.60;;;1.40;99.90;;;;;;4939911;29;20210;-86
2021/12/12 07:58:32;;;;;;;8.75;7.85;;;1.50;99.90;;;;;;4922281;29;20601;-86
2021/12/12 08:01:07;;;;;;;7.32;6.60;;;1.40;99.90;;;;;;4939241;29;20234;-86
2021/12/12 08:03:40;;;;;;;9.45;5.90;;;1.50;99.90;;;;;;4940268;29;20238;-86
2021/12/12 08:06:14;;;;;;;9.68;6.60;;;1.60;99.90;;;;;;4941791;29;20222;-86
2021/12/12 08:08:44;;;;;;;4.57;4.25;;;1.60;99.90;;;;;;4944925;29;20710;-87
2021/12/12 08:11:22;;;;;;;6.28;5.53;;;1.70;99.90;;;;;;4947855;29;20268;-85
2021/12/12 08:13:57;;;;;;;5.43;4.72;;;1.80;99.90;;;;;;4947016;29;20247;-86
2021/12/12 08:22:11;;;;;;;7.03;4.85;;;2.10;99.90;;;;;;4946924;29;20248;-87
2021/12/12 08:24:40;;;;;;;4.47;4.07;;;2.20;99.90;;;;;;4948244;29;20231;-86
2021/12/12 08:27:10;;;;;;;4.68;3.95;;;2.30;99.90;;;;;;4948747;29;20245;-87
2021/12/12 08:29:40;;;;;;;3.72;3.42;;;2.40;99.90;;;;;;4949857;29;20285;-87
2021/12/12 08:32:12;;;;;;;4.80;4.30;;;2.70;99.90;;;;;;4949377;29;20229;-86
2021/12/12 08:34:45;;;;;;;5.50;4.18;;;2.70;99.90;;;;;;4949501;29;20222;-86
2021/12/12 08:37:25;;;;;;;3.63;3.28;;;2.90;99.90;;;;;;4951448;29;20209;-86
2021/12/12 08:40:08;;;;;;;4.30;3.90;;;3.00;99.90;;;;;;4963184;28;20254;-88
2021/12/12 08:42:49;;;;;;;3.70;3.40;;;3.10;99.90;;;;;;4962967;28;20197;-89
2021/12/12 08:45:23;;;;;;;3.92;3.38;;;3.10;99.90;;;;;;4962354;28;20461;-87
2021/12/12 08:47:58;;;;;;;4.30;3.90;;;3.20;99.90;;;;;;4939203;28;20233;-86
2021/12/12 08:50:37;;;;;;;4.55;4.15;;;3.20;99.90;;;;;;4935868;29;20285;-87
2021/12/12 08:53:07;;;;;;;4.18;3.63;;;3.10;99.90;;;;;;4949489;29;20590;-86
2021/12/12 08:55:43;;;;;;;2.97;2.75;;;3.10;99.90;;;;;;4948875;29;20212;-87
2021/12/12 08:58:17;;;;;;;4.05;3.75;;;3.10;99.90;;;;;;4931774;29;20229;-86
2021/12/12 09:00:57;;;;;;;3.40;3.20;;;3.10;99.90;;;;;;4948973;29;20228;-86
2021/12/12 09:03:36;;;;;;;6.50;2.90;;;3.20;99.90;;;;;;4931468;29;20267;-86
2021/12/12 09:20:25;;;;;;;4.25;3.85;;;3.20;99.90;;;;;;5181695;27;20329;-85
2021/12/12 09:23:19;;;;;;;5.30;2.23;;;3.30;99.90;;;;;;4093414;27;30400202;-86
2021/12/12 09:25:52;;;;;;;2.90;2.70;;;3.30;99.90;;;;;;5180966;27;20925;-83
2021/12/12 09:28:27;;;;;;;4.00;3.65;;;3.30;99.90;;;;;;5179367;27;20224;-83
2021/12/12 09:30:55;;;;;;;3.47;3.28;;;3.30;99.90;;;;;;5180292;27;20224;-83
2021/12/12 09:33:25;;;;;;;9.05;4.03;;;3.20;99.90;;;;;;5180525;27;20208;-83
2021/12/12 09:35:59;;;;;;;4.30;4.00;;;3.20;99.90;;;;;;5179976;27;20672;-83
2021/12/12 09:38:31;;;;;;;2.65;2.45;;;3.40;99.90;;;;;;5180363;27;20204;-83
2021/12/12 09:41:18;;;;;;;3.13;2.78;;;3.40;99.90;;;;;;5179435;27;20228;-83
2021/12/12 09:44:00;;;;;;;4.32;3.90;;;3.50;99.90;;;;;;5179293;27;20198;-82
2021/12/12 09:46:58;;;;;;;3.17;2.97;;;3.60;99.90;;;;;;5179196;27;20201;-82
2021/12/12 09:52:44;;;;;;;3.15;2.95;;;3.80;99.90;;;;;;5178109;27;20185;-82
2021/12/12 09:55:13;;;;;;;4.60;2.70;;;4.00;99.90;;;;;;5177732;27;20198;-83
2021/12/12 09:57:47;;;;;;;3.10;2.83;;;4.00;99.90;;;;;;5175569;27;20719;-83
2021/12/12 10:00:17;;;;;;;3.30;3.00;;;4.10;99.90;;;;;;5177641;27;20217;-83
2021/12/12 10:03:17;;;;;;;2.83;2.63;;;4.20;99.90;;;;;;5178436;27;20659;-82
2021/12/12 10:05:54;;;;;;;3.15;2.85;;;4.30;99.90;;;;;;5128919;27;20560;-82
2021/12/12 10:08:35;;;;;;;2.90;2.65;;;4.30;99.90;;;;;;5175930;27;20213;-82
2021/12/12 10:11:07;;;;;;;2.25;2.05;;;4.30;99.90;;;;;;5173269;27;20223;-83
2021/12/12 10:13:40;;;;;;;3.55;3.25;;;4.20;99.90;;;;;;5177616;27;20194;-83
2021/12/12 10:16:16;;;;;;;3.92;2.65;;;4.30;99.90;;;;;;5178070;27;20186;-82
2021/12/12 10:18:53;;;;;;;2.78;2.30;;;4.40;99.90;;;;;;5175301;27;20196;-82
2021/12/12 10:21:25;;;;;;;3.42;2.97;;;4.40;99.90;;;;;;5164568;27;20247;-82
2021/12/12 10:24:07;;;;;;;3.92;3.30;;;4.40;99.90;;;;;;5167565;27;20206;-82
2021/12/12 10:26:38;;;;;;;4.28;3.72;;;4.50;99.90;;;;;;5177641;27;20200;-81
2021/12/12 10:29:09;;;;;;;2.08;1.90;;;4.50;99.90;;;;;;5170133;27;20576;-82
2021/12/12 10:31:46;;;;;;;3.63;3.33;;;4.50;99.90;;;;;;5167743;27;20245;-82
2021/12/12 10:34:36;;;;;;;3.25;2.60;;;4.40;99.90;;;;;;5166935;27;20190;-82
2021/12/12 10:37:16;;;;;;;2.85;2.30;;;4.60;99.90;;;;;;5164864;27;20197;-83
2021/12/12 10:39:49;;;;;;;3.10;2.55;;;4.70;99.90;;;;;;5166401;27;20197;-84
2021/12/12 10:42:22;;;;;;;4.22;3.70;;;4.70;99.90;;;;;;5168749;27;20206;-85
2021/12/12 10:44:56;;;;;;;2.90;2.22;;;4.70;99.90;;;;;;5164456;27;20205;-85
2021/12/12 10:47:32;;;;;;;3.03;2.60;;;4.80;99.90;;;;;;5168863;27;20219;-85
2021/12/12 10:50:12;;;;;;;3.47;2.28;;;4.90;99.90;;;;;;5166218;27;20226;-85
2021/12/12 10:52:43;;;;;;;2.67;2.47;;;4.90;99.90;;;;;;5147374;27;20218;-85
2021/12/12 10:55:18;;;;;;;2.40;2.28;;;4.90;99.90;;;;;;5157625;27;20197;-85
2021/12/12 10:57:53;;;;;;;3.30;2.75;;;4.80;99.90;;;;;;5168577;27;20206;-84
2021/12/12 11:00:23;;;;;;;2.33;2.20;;;4.90;99.90;;;;;;5169066;27;20250;-84
2021/12/12 11:03:01;;;;;;;2.85;1.80;;;5.00;99.90;;;;;;5150863;27;20213;-83
2021/12/12 11:05:32;;;;;;;2.95;2.75;;;5.10;99.90;;;;;;5167553;27;20293;-85
2021/12/12 11:08:10;;;;;;;2.92;2.45;;;5.30;99.90;;;;;;5162827;27;20206;-85
2021/12/12 11:10:41;;;;;;;2.30;2.20;;;5.40;99.90;;;;;;5166998;27;20237;-85
2021/12/12 11:13:14;;;;;;;3.60;2.38;;;5.40;99.90;;;;;;5168644;27;20205;-85
2021/12/12 11:15:45;;;;;;;5.93;2.20;;;5.50;99.90;;;;;;5171371;27;20203;-85
2021/12/12 11:18:15;;;;;;;2.80;2.40;;;5.60;99.90;;;;;;5168981;27;20199;-85
2021/12/12 11:20:45;;;;;;;2.10;1.98;;;5.70;99.90;;;;;;5165585;27;20244;-85
2021/12/12 11:23:17;;;;;;;4.03;2.60;;;5.80;99.90;;;;;;5165096;27;20301;-85
2021/12/12 11:25:49;;;;;;;2.97;2.67;;;5.90;99.90;;;;;;5162989;27;20202;-84
2021/12/12 11:28:21;;;;;;;2.80;2.60;;;6.10;99.90;;;;;;5165147;27;20218;-84
2021/12/12 11:30:52;;;;;;;8.32;3.03;;;6.20;99.90;;;;;;5164049;27;20222;-83
2021/12/12 11:33:21;;;;;;;2.40;2.20;;;6.30;99.90;;;;;;5165045;27;20194;-83
2021/12/12 11:35:51;;;;;;;5.90;2.38;;;6.20;99.90;;;;;;5163797;27;20200;-83
2021/12/12 11:38:27;;;;;;;2.20;2.00;;;6.40;99.90;;;;;;5161833;27;20202;-84
2021/12/12 11:41:04;;;;;;;2.53;2.33;;;6.40;99.90;;;;;;5164095;27;20286;-81
2021/12/12 11:43:35;;;;;;;1.85;1.73;;;6.40;99.90;;;;;;5160583;27;20198;-82
2021/12/12 11:46:06;;;;;;;1.73;1.63;;;6.30;99.90;;;;;;5158979;27;20210;-82
2021/12/12 11:48:48;;;;;;;2.10;1.92;;;6.30;99.90;;;;;;5161535;27;20220;-82
2021/12/12 11:51:18;;;;;;;2.58;2.20;;;6.20;99.90;;;;;;5163852;27;20587;-82
2021/12/12 11:53:49;;;;;;;1.95;1.85;;;6.40;99.90;;;;;;5164667;27;20194;-82
2021/12/12 11:56:24;;;;;;;1.90;1.80;;;6.50;99.90;;;;;;5165759;27;20202;-82
2021/12/12 11:59:03;;;;;;;1.98;1.70;;;6.60;99.90;;;;;;5173601;27;20233;-81
2021/12/12 12:01:39;;;;;;;1.70;1.60;;;6.60;99.20;;;;;;5171686;27;20218;-81
2021/12/12 12:04:21;;;;;;;1.73;1.60;;;6.40;99.40;;;;;;5173027;27;20198;-82
2021/12/12 12:07:04;;;;;;;2.55;1.98;;;6.40;98.90;;;;;;5171479;27;20198;-82
2021/12/12 12:09:50;;;;;;;1.85;1.75;;;6.40;99.20;;;;;;5169149;27;20245;-82
2021/12/12 12:12:41;;;;;;;3.33;1.50;;;6.40;99.40;;;;;;5171040;27;20195;-81
2021/12/12 12:15:17;;;;;;;1.63;1.48;;;6.50;99.80;;;;;;5170386;27;20210;-82
2021/12/12 12:18:00;;;;;;;1.20;1.20;;;6.60;99.00;;;;;;5170228;27;20201;-83
2021/12/12 12:20:39;;;;;;;2.17;1.65;;;6.80;98.00;;;;;;5169698;27;20232;-82
2021/12/12 12:23:17;;;;;;;2.15;2.05;;;6.90;98.00;;;;;;5170340;27;20214;-81
2021/12/12 12:28:41;;;;;;;2.65;1.55;;;7.00;97.30;;;;;;5167396;27;20221;-82
2021/12/12 12:31:56;;;;;;;5.05;1.58;;;7.10;97.60;;;;;;5164420;27;20224;-80
2021/12/12 12:35:05;;;;;;;2.70;2.45;;;7.10;97.50;;;;;;5111515;27;20212;-81
2021/12/12 12:38:10;;;;;;;3.33;1.60;;;7.20;96.90;;;;;;5164599;27;20284;-81
2021/12/12 12:41:15;;;;;;;2.45;1.83;;;7.00;96.60;;;;;;5139517;27;20222;-81
2021/12/12 12:44:11;;;;;;;1.80;1.70;;;7.00;96.80;;;;;;5144709;27;20206;-81
2021/12/12 12:47:27;;;;;;;1.98;1.77;;;7.00;97.20;;;;;;5162476;27;20250;-82
2021/12/12 12:50:31;;;;;;;3.00;2.80;;;6.70;97.70;;;;;;5081803;28;20221;-82
2021/12/12 12:53:39;;;;;;;1.80;1.70;;;6.70;98.60;;;;;;5163735;27;20205;-83
2021/12/12 12:56:44;;;;;;;2.22;2.10;;;6.70;98.40;;;;;;5079844;28;20205;-84
2021/12/12 12:59:29;;;;;;;5.15;2.47;;;6.60;98.60;;;;;;5145874;27;20202;-83
2021/12/12 13:02:11;;;;;;;2.92;1.85;;;6.60;98.70;;;;;;5166072;27;20290;-83
2021/12/12 13:04:47;;;;;;;2.20;2.00;;;6.70;98.60;;;;;;5158801;27;20293;-86
2021/12/12 13:07:29;;;;;;;3.55;2.42;;;6.70;98.70;;;;;;5162388;27;20213;-84
2021/12/12 13:10:04;;;;;;;2.08;1.98;;;6.50;98.60;;;;;;5162626;27;20225;-85
2021/12/12 13:13:05;;;;;;;1.90;1.75;;;6.60;98.80;;;;;;5163684;27;20269;-84
2021/12/12 13:16:11;;;;;;;2.55;2.35;;;6.70;98.90;;;;;;5159602;27;20208;-85
2021/12/12 13:18:50;;;;;;;2.58;2.05;;;6.70;98.20;;;;;;5166577;27;20194;-82
2021/12/12 13:28:48;;;;;;;2.70;2.55;;;6.70;98.40;;;;;;5005868;28;20206;-85
2021/12/12 13:35:17;;;;;;;4.93;2.97;;;6.60;98.30;;;;;;4997970;28;20215;-86
2021/12/12 13:38:16;;;;;;;3.22;2.35;;;6.50;98.50;;;;;;4975863;28;20271;-86
2021/12/12 13:40:50;;;;;;;2.40;2.20;;;6.40;98.90;;;;;;5067592;28;20236;-86
2021/12/12 13:43:31;;;;;;;2.80;2.20;;;6.30;98.70;;;;;;5094675;28;20223;-86
2021/12/12 13:46:15;;;;;;;2.58;2.13;;;6.30;99.20;;;;;;5078944;28;20216;-86
2021/12/12 13:48:56;;;;;;;2.40;2.20;;;6.20;99.30;;;;;;5099347;28;20634;-84
2021/12/12 13:51:35;;;;;;;2.60;2.33;;;6.30;99.30;;;;;;5089962;28;20224;-83
2021/12/12 13:54:11;;;;;;;2.60;2.40;;;6.20;99.30;;;;;;5078312;28;20200;-83
2021/12/12 13:56:47;;;;;;;3.13;2.50;;;6.10;99.30;;;;;;5084253;28;20204;-84
2021/12/12 13:59:23;;;;;;;2.28;2.17;;;6.20;99.50;;;;;;5087316;28;20189;-84
2021/12/12 14:01:55;;;;;;;4.25;3.17;;;6.10;99.60;;;;;;5081814;28;20224;-84
2021/12/12 14:04:30;;;;;;;2.60;2.25;;;6.20;99.90;;;;;;5098998;28;20201;-84
2021/12/12 14:07:00;;;;;;;2.20;2.00;;;6.20;99.80;;;;;;5103484;28;20208;-84
2021/12/12 14:09:29;;;;;;;2.35;2.20;;;6.20;99.90;;;;;;5103039;28;20220;-84
2021/12/12 14:56:29;;;;;;;4.22;3.80;;;5.90;99.90;;;;;;5062648;28;20218;-86
2021/12/12 14:59:13;;;;;;;4.30;3.03;;;5.90;99.90;;;;;;4987207;28;20235;-85
2021/12/12 15:01:43;;;;;;;2.72;2.20;;;5.80;99.90;;;;;;5041715;28;20222;-81
2021/12/12 15:04:15;;;;;;;7.05;3.67;;;5.90;99.90;;;;;;5041357;28;20202;-83
2021/12/12 15:06:45;;;;;;;3.38;3.17;;;5.90;99.90;;;;;;5049227;28;20681;-82
2021/12/12 15:09:16;;;;;;;3.47;3.00;;;6.00;99.90;;;;;;5041630;28;20206;-82
2021/12/12 15:11:53;;;;;;;2.90;2.70;;;5.90;99.90;;;;;;5039093;28;20219;-82
2021/12/12 15:14:24;;;;;;;2.75;2.55;;;5.90;99.90;;;;;;5045023;28;20206;-82
2021/12/12 15:16:52;;;;;;;3.47;3.17;;;5.90;99.90;;;;;;5045440;28;20203;-82
2021/12/12 15:19:24;;;;;;;3.40;3.20;;;6.00;99.90;;;;;;5041492;28;20213;-80
2021/12/12 15:22:00;;;;;;;3.00;2.42;;;6.00;99.90;;;;;;5044653;28;20241;-82